Terminal Aerodrome Forecast
Issued by NWS

Home | Current Version | Previous Version | Text Only | Print | Product List | Glossary Off
Versions: 1 2 3 4 5 6 7 8 9 10 11 12 13 14 15

021
FTUS42 KMHX 090141 AAA
TAFOAJ
TAF AMD
KOAJ 090141Z 0902/0924 24006KT P6SM VCSH SCT030 BKN060
      TEMPO 0902/0903 5SM SHRA BKN030
     FM090600 24007KT P6SM SCT030
     FM091400 24012G21KT P6SM BKN050
      AMD LTD TO CLD VIS AND WIND=

USA.gov is the U.S. government's official web portal to all federal, state and local government web resources and services.